This is the latest recevied weather packets stored in our database for station/object W5HKR. If no packets are shown the sender has not sent any weather packets the latest 10 day(s).
| Time | Temp. | Humidity | Pressure | Rain* | Wind** | Luminosity | Snow |
|---|---|---|---|---|---|---|---|
| 1777589302 | 25° C | 71% | 981.2 hPa | 0 mm | - | - | - |
| 1777589193 | 18.33° C | 91% | 990.6 hPa | 0 mm | - | - | - |
| 1777589003 | 25° C | 71% | 980.8 hPa | 0 mm | - | - | - |
| 1777588703 | 18.33° C | 91% | 990.6 hPa | 0 mm | - | - | - |
| 1777588102 | 25° C | 71% | 980.8 hPa | 0 mm | - | - | - |
| 1777587804 | 25° C | 72% | 980.4 hPa | 0 mm | - | - | - |
| 1777587503 | 25° C | 72% | 980.9 hPa | 0 mm | - | - | - |
| 1777587202 | 25° C | 72% | 981 hPa | 0 mm | - | - | - |
| 1777587034 | 18.33° C | 91% | 990.6 hPa | 0 mm | - | - | - |
| 1777586901 | 24.44° C | 72% | 980.4 hPa | 0 mm | - | - | - |
| 1777586602 | 18.33° C | 91% | 990.6 hPa | 0 mm | - | - | - |
| 1777586301 | 24.44° C | 72% | 981 hPa | 0 mm | - | - | - |
| 1777586003 | 24.44° C | 71% | 981.4 hPa | 0 mm | - | - | - |
| 1777585953 | 25° C | 71% | 981 hPa | 0 mm | - | - | - |
| 1777585702 | 25° C | 72% | 981.3 hPa | 0 mm | - | - | - |
| 1777585402 | 18.33° C | 91% | 990.6 hPa | 0 mm | - | - | - |
| 1777585102 | 18.33° C | 91% | 990.6 hPa | 0 mm | - | - | - |
| 1777584873 | 24.44° C | 73% | 981.6 hPa | 0 mm | - | - | - |
| 1777584803 | 24.44° C | 72% | 981.5 hPa | 0 mm | - | - | - |
| 1777584502 | 18.33° C | 91% | 990.6 hPa | 0 mm | - | - | - |
| 1777584201 | 18.33° C | 91% | 990.6 hPa | 0 mm | - | - | - |
| 1777583794 | 18.33° C | 91% | 990.6 hPa | 0 mm | - | - | - |
| 1777583603 | 18.33° C | 91% | 990.6 hPa | 0 mm | - | - | - |
| 1777583301 | 23.89° C | 72% | 982 hPa | 0 mm | - | - | - |
| 1777583004 | 24.44° C | 72% | 981.5 hPa | 0 mm | - | - | - |
* Rain latest hour (hover to see other rain measurements)
** Current wind speed in m/s (hover to see current wind gust speed)